createdAt,value
2023-04-17T00:00:58.116Z,39.23
2023-04-17T00:06:00.208Z,43.43
2023-04-17T00:11:07.834Z,46.50
2023-04-17T00:16:14.063Z,45.27
2023-04-17T00:21:16.021Z,43.40
2023-04-17T00:26:19.585Z,41.43
2023-04-17T00:31:21.599Z,40.77
2023-04-17T00:36:23.479Z,43.17
2023-04-17T00:41:25.374Z,42.13
2023-04-17T00:46:27.432Z,45.50
2023-04-17T00:51:29.723Z,49.67
2023-04-17T00:56:32.060Z,44.50
2023-04-17T01:01:34.281Z,46.37
2023-04-17T01:06:36.898Z,52.60
2023-04-17T01:11:39.542Z,48.70
2023-04-17T01:16:42.159Z,50.23
2023-04-17T01:21:44.426Z,46.87
2023-04-17T01:26:46.605Z,51.10
2023-04-17T01:31:50.075Z,46.13
2023-04-17T01:36:52.186Z,55.33
2023-04-17T01:41:54.402Z,49.97
2023-04-17T01:46:56.681Z,54.40
2023-04-17T01:51:58.588Z,52.40
2023-04-17T01:57:01.288Z,46.33
2023-04-17T02:02:03.405Z,49.70
2023-04-17T02:07:06.890Z,50.03
2023-04-17T02:12:08.885Z,49.13
2023-04-17T02:17:11.203Z,50.07
2023-04-17T02:22:13.168Z,50.47
2023-04-17T02:27:14.994Z,51.70
2023-04-17T02:32:18.991Z,50.43
2023-04-17T02:37:21.275Z,54.17
2023-04-17T02:42:24.512Z,56.00
2023-04-17T02:47:26.453Z,61.53
2023-04-17T02:52:30.147Z,56.50
2023-04-17T02:57:32.808Z,60.33
2023-04-17T03:02:35.011Z,56.30
2023-04-17T03:07:37.118Z,59.50
2023-04-17T03:12:40.368Z,65.47
2023-04-17T03:17:42.402Z,58.43
2023-04-17T03:22:44.311Z,61.80
2023-04-17T03:27:47.168Z,61.30
2023-04-17T03:32:51.509Z,52.10
2023-04-17T03:37:53.520Z,49.07
2023-04-17T03:42:55.914Z,56.00
2023-04-17T03:47:59.450Z,48.53
2023-04-17T03:53:01.824Z,58.43
2023-04-17T03:58:05.770Z,54.30
2023-04-17T04:03:09.460Z,52.63
2023-04-17T04:08:15.771Z,53.37
2023-04-17T04:13:24.560Z,59.90
2023-04-17T04:18:31.372Z,49.83
2023-04-17T04:23:34.517Z,51.10
2023-04-17T04:28:38.046Z,51.17
2023-04-17T04:33:44.902Z,54.33
2023-04-17T04:38:50.358Z,60.87
2023-04-17T04:44:03.702Z,67.27
2023-04-17T04:49:07.224Z,57.30
2023-04-17T04:54:10.739Z,63.77
2023-04-17T04:59:21.212Z,62.27
2023-04-17T05:04:31.539Z,52.03
2023-04-17T05:09:36.655Z,55.80
2023-04-17T05:14:40.546Z,59.20
2023-04-17T05:19:44.030Z,56.00
2023-04-17T05:24:46.155Z,56.83
2023-04-17T05:29:48.276Z,60.17
2023-04-17T05:34:50.645Z,53.43
2023-04-17T05:39:56.371Z,56.60
2023-04-17T05:44:58.709Z,50.43
2023-04-17T05:50:00.997Z,47.57
2023-04-17T05:55:04.803Z,45.33
2023-04-17T06:00:13.061Z,47.33
2023-04-17T06:05:21.725Z,39.10
2023-04-17T06:10:24.023Z,47.37
2023-04-17T06:15:26.844Z,44.20
2023-04-17T06:20:29.088Z,38.73
2023-04-17T06:25:31.392Z,45.33
2023-04-17T06:30:33.424Z,36.70
2023-04-17T06:35:36.610Z,41.77
2023-04-17T06:41:10.943Z,42.47
2023-04-17T06:46:15.274Z,40.97
2023-04-17T06:51:20.690Z,40.40
2023-04-17T06:56:24.483Z,39.10
2023-04-17T07:01:27.892Z,40.30
2023-04-17T07:06:29.942Z,38.53
2023-04-17T07:11:32.134Z,39.37
2023-04-17T07:16:34.097Z,47.20
2023-04-17T07:21:36.596Z,37.27
2023-04-17T07:26:40.539Z,42.53
2023-04-17T07:31:42.496Z,39.70
2023-04-17T07:36:45.129Z,39.33
2023-04-17T07:41:47.023Z,40.20
2023-04-17T07:46:48.870Z,40.90
2023-04-17T07:51:51.228Z,39.30
2023-04-17T07:56:56.922Z,35.07
2023-04-17T08:01:59.003Z,34.87
2023-04-17T08:07:01.377Z,35.70
2023-04-17T08:12:03.857Z,39.23
2023-04-17T08:17:07.600Z,30.17
2023-04-17T08:22:09.876Z,33.87
2023-04-17T08:27:13.588Z,33.53
2023-04-17T08:32:15.885Z,37.50
2023-04-17T08:37:18.021Z,40.03
2023-04-17T08:42:20.081Z,37.77
2023-04-17T08:47:22.553Z,33.53
2023-04-17T08:52:24.428Z,35.60
2023-04-17T08:57:26.383Z,41.73
2023-04-17T09:02:28.588Z,37.27
2023-04-17T09:07:30.809Z,37.20
2023-04-17T09:12:32.743Z,36.73
2023-04-17T09:17:37.865Z,41.70
2023-04-17T09:22:41.070Z,38.07
2023-04-17T09:27:43.053Z,41.70
2023-04-17T09:32:44.975Z,42.43
2023-04-17T09:37:54.512Z,45.57
2023-04-17T09:43:09.452Z,43.93
2023-04-17T09:48:12.885Z,44.80
2023-04-17T09:53:16.984Z,39.33
2023-04-17T09:58:20.074Z,39.50
2023-04-17T10:03:23.794Z,39.70
2023-04-17T10:08:26.017Z,36.70
2023-04-17T10:13:29.753Z,41.90
2023-04-17T10:18:33.200Z,36.13
2023-04-17T10:23:35.449Z,38.37
2023-04-17T10:28:48.987Z,35.07
2023-04-17T10:33:53.020Z,38.43
2023-04-17T10:39:15.461Z,35.70
2023-04-17T10:44:18.393Z,36.23
2023-04-17T10:49:23.461Z,35.40
2023-04-17T10:54:25.317Z,30.98
2023-04-17T10:59:30.083Z,30.70
2023-04-17T11:04:34.282Z,29.17
2023-04-17T11:09:36.386Z,31.63
2023-04-17T11:14:40.831Z,29.77
2023-04-17T11:19:43.675Z,29.50
2023-04-17T11:24:47.132Z,28.73
2023-04-17T11:29:49.193Z,27.00
2023-04-17T11:34:54.689Z,26.00
2023-04-17T11:40:06.049Z,28.10
2023-04-17T11:45:08.930Z,26.45
2023-04-17T11:50:11.286Z,28.17
2023-04-17T11:55:15.826Z,26.27
2023-04-17T12:00:18.500Z,24.23
2023-04-17T12:05:21.000Z,28.80
2023-04-17T12:10:25.580Z,28.70
2023-04-17T12:15:27.966Z,26.23
2023-04-17T12:20:30.169Z,28.13
2023-04-17T12:25:33.652Z,28.55
2023-04-17T12:30:36.442Z,29.02
2023-04-17T12:35:38.719Z,24.55
2023-04-17T12:40:43.460Z,27.00
2023-04-17T12:45:47.456Z,26.08
2023-04-17T12:50:49.550Z,27.90
2023-04-17T12:55:51.610Z,26.55
2023-04-17T13:00:53.518Z,22.98
2023-04-17T13:05:55.710Z,25.23
2023-04-17T13:10:58.367Z,24.92
2023-04-17T13:16:00.927Z,30.58
2023-04-17T13:21:03.032Z,25.95
2023-04-17T13:26:05.845Z,24.52
2023-04-17T13:31:08.751Z,24.92
2023-04-17T13:36:11.310Z,28.10
2023-04-17T13:41:13.552Z,28.83
2023-04-17T13:46:16.673Z,23.52
2023-04-17T13:51:18.911Z,28.38
2023-04-17T13:56:23.458Z,26.90
2023-04-17T14:01:25.580Z,24.58
2023-04-17T14:06:28.893Z,28.70
2023-04-17T14:11:31.176Z,23.23
2023-04-17T14:16:33.816Z,25.88
2023-04-17T14:21:36.409Z,23.75
2023-04-17T14:26:38.631Z,22.13
2023-04-17T14:31:43.875Z,23.88
2023-04-17T14:36:46.232Z,23.90
2023-04-17T14:41:48.415Z,22.38
2023-04-17T14:46:54.835Z,21.55
2023-04-17T14:51:56.883Z,23.23
2023-04-17T14:56:58.981Z,23.00
2023-04-17T15:02:01.076Z,24.17
2023-04-17T15:07:03.301Z,22.55
2023-04-17T15:12:05.661Z,21.65
2023-04-17T15:17:08.972Z,21.52
2023-04-17T15:22:11.033Z,25.60
2023-04-17T15:27:13.030Z,20.83
2023-04-17T15:32:15.109Z,18.98
2023-04-17T15:37:17.179Z,22.20
2023-04-17T15:42:19.346Z,24.45
2023-04-17T15:47:21.406Z,23.30
2023-04-17T15:52:23.335Z,21.70
2023-04-17T15:57:25.331Z,21.33
2023-04-17T16:02:28.921Z,22.35
2023-04-17T16:07:31.934Z,21.05
2023-04-17T16:12:33.851Z,22.02
2023-04-17T16:17:36.092Z,20.50
2023-04-17T16:22:38.148Z,22.23
2023-04-17T16:27:40.533Z,24.27
2023-04-17T16:32:50.141Z,21.20
2023-04-17T16:37:52.315Z,20.23
2023-04-17T16:42:54.438Z,20.17
2023-04-17T16:47:56.337Z,19.70
2023-04-17T16:52:58.346Z,20.55
2023-04-17T16:58:38.294Z,21.67
2023-04-17T17:03:43.089Z,23.73
2023-04-17T17:08:46.815Z,20.33
2023-04-17T17:13:50.529Z,19.08
2023-04-17T17:18:52.972Z,19.65
2023-04-17T17:23:54.815Z,22.48
2023-04-17T17:28:56.807Z,21.77
2023-04-17T17:34:17.010Z,22.38
2023-04-17T17:39:24.228Z,19.52
2023-04-17T17:44:26.263Z,19.13
2023-04-17T17:49:28.294Z,22.03
2023-04-17T17:54:30.398Z,21.70
2023-04-17T17:59:33.216Z,17.87
2023-04-17T18:04:35.200Z,18.23
2023-04-17T18:09:37.039Z,19.33
2023-04-17T18:14:38.816Z,19.57
2023-04-17T18:19:42.093Z,20.60
2023-04-17T18:24:43.950Z,20.33
2023-04-17T18:29:45.912Z,22.07
2023-04-17T18:34:51.657Z,20.23
2023-04-17T18:40:01.730Z,18.63
2023-04-17T18:51:17.442Z,22.60
2023-04-17T18:57:05.455Z,18.20
2023-04-17T19:02:07.741Z,18.80
2023-04-17T19:07:10.271Z,18.83
2023-04-17T19:12:12.124Z,20.07
2023-04-17T19:17:15.924Z,18.50
2023-04-17T19:22:18.556Z,22.03
2023-04-17T19:27:20.746Z,22.27
2023-04-17T19:32:22.641Z,16.93
2023-04-17T19:37:24.637Z,20.37
2023-04-17T19:42:27.146Z,20.70
2023-04-17T19:47:29.261Z,23.50
2023-04-17T19:52:31.245Z,24.40
2023-04-17T19:57:33.715Z,18.33
2023-04-17T20:02:35.762Z,19.33
2023-04-17T20:07:37.932Z,17.17
2023-04-17T20:12:40.099Z,21.13
2023-04-17T20:17:42.299Z,19.10
2023-04-17T20:22:44.187Z,19.07
2023-04-17T20:27:46.575Z,16.97
2023-04-17T20:39:26.549Z,22.03
2023-04-17T20:44:28.482Z,21.93
2023-04-17T20:49:32.128Z,23.60
2023-04-17T20:54:35.841Z,20.53
2023-04-17T20:59:37.885Z,23.27
2023-04-17T21:04:39.926Z,24.47
2023-04-17T21:09:41.919Z,27.50
2023-04-17T21:14:43.696Z,24.87
2023-04-17T21:19:46.288Z,28.23
2023-04-17T21:24:48.274Z,24.30
2023-04-17T21:29:50.279Z,28.13
2023-04-17T21:34:52.088Z,27.27
2023-04-17T21:39:54.629Z,37.87
2023-04-17T21:44:56.480Z,26.80
2023-04-17T21:50:00.199Z,30.97
2023-04-17T21:55:07.586Z,39.03
2023-04-17T22:00:12.510Z,30.43
2023-04-17T22:05:14.453Z,33.17
2023-04-17T22:10:16.269Z,34.83
2023-04-17T22:15:18.393Z,33.37
2023-04-17T22:20:20.687Z,36.50
2023-04-17T22:25:22.694Z,35.47
2023-04-17T22:30:24.581Z,33.53
2023-04-17T22:35:26.892Z,35.10
2023-04-17T22:40:30.114Z,35.37
2023-04-17T22:45:32.685Z,36.07
2023-04-17T22:50:34.836Z,32.83
2023-04-17T22:55:37.154Z,35.27
2023-04-17T23:00:39.019Z,35.23
2023-04-17T23:05:41.002Z,41.60
2023-04-17T23:10:42.833Z,35.80
2023-04-17T23:15:44.668Z,36.43
2023-04-17T23:20:47.023Z,34.93
2023-04-17T23:25:49.153Z,33.13
2023-04-17T23:30:50.994Z,34.57
2023-04-17T23:35:52.955Z,35.93
2023-04-17T23:40:55.045Z,37.43
2023-04-17T23:45:57.755Z,39.03
2023-04-17T23:51:00.171Z,35.80
2023-04-17T23:56:02.470Z,38.43
